sensor_id;sensor_type;location;lat;lon;timestamp;pressure;altitude;pressure_sealevel;temperature;humidity
54262;BME280;40174;52.364;6.452;2022-09-28T00:02:10;99300.00;;;8.40;100.00
54262;BME280;40174;52.364;6.452;2022-09-28T00:04:37;99301.00;;;8.39;100.00
54262;BME280;40174;52.364;6.452;2022-09-28T00:07:03;99290.59;;;8.37;100.00
54262;BME280;40174;52.364;6.452;2022-09-28T00:09:30;99287.81;;;8.39;100.00
54262;BME280;40174;52.364;6.452;2022-09-28T00:11:58;99293.09;;;8.39;100.00
54262;BME280;40174;52.364;6.452;2022-09-28T00:14:24;99288.50;;;8.41;100.00
54262;BME280;40174;52.364;6.452;2022-09-28T00:16:51;99280.75;;;8.39;100.00
54262;BME280;40174;52.364;6.452;2022-09-28T00:19:20;99289.47;;;8.40;100.00
54262;BME280;40174;52.364;6.452;2022-09-28T00:21:47;99285.06;;;8.40;100.00
54262;BME280;40174;52.364;6.452;2022-09-28T00:24:13;99280.75;;;8.39;100.00
54262;BME280;40174;52.364;6.452;2022-09-28T00:26:44;99278.94;;;8.40;100.00
54262;BME280;40174;52.364;6.452;2022-09-28T00:29:18;99280.59;;;8.41;100.00
54262;BME280;40174;52.364;6.452;2022-09-28T00:31:46;99279.94;;;8.39;100.00
54262;BME280;40174;52.364;6.452;2022-09-28T00:34:13;99278.13;;;8.39;100.00
54262;BME280;40174;52.364;6.452;2022-09-28T00:36:42;99278.69;;;8.33;100.00
54262;BME280;40174;52.364;6.452;2022-09-28T00:39:11;99274.56;;;8.30;100.00
54262;BME280;40174;52.364;6.452;2022-09-28T00:41:38;99277.88;;;8.32;100.00
54262;BME280;40174;52.364;6.452;2022-09-28T00:44:35;99270.50;;;8.36;100.00
54262;BME280;40174;52.364;6.452;2022-09-28T00:47:11;99269.66;;;8.36;100.00
54262;BME280;40174;52.364;6.452;2022-09-28T00:49:42;99268.97;;;8.33;100.00
54262;BME280;40174;52.364;6.452;2022-09-28T00:52:11;99278.56;;;8.35;100.00
54262;BME280;40174;52.364;6.452;2022-09-28T00:54:41;99270.66;;;8.35;100.00
54262;BME280;40174;52.364;6.452;2022-09-28T00:57:09;99267.34;;;8.32;100.00
54262;BME280;40174;52.364;6.452;2022-09-28T00:59:36;99269.16;;;8.32;100.00
54262;BME280;40174;52.364;6.452;2022-09-28T01:02:03;99269.16;;;8.32;100.00
54262;BME280;40174;52.364;6.452;2022-09-28T01:04:30;99266.78;;;8.29;100.00
54262;BME280;40174;52.364;6.452;2022-09-28T01:06:57;99257.94;;;8.30;100.00
54262;BME280;40174;52.364;6.452;2022-09-28T01:09:25;99255.31;;;8.30;100.00
54262;BME280;40174;52.364;6.452;2022-09-28T01:11:53;99255.31;;;8.30;100.00
54262;BME280;40174;52.364;6.452;2022-09-28T01:14:21;99252.66;;;8.30;100.00
54262;BME280;40174;52.364;6.452;2022-09-28T01:16:57;99258.06;;;8.28;100.00
54262;BME280;40174;52.364;6.452;2022-09-28T01:20:06;99258.22;;;8.27;100.00
54262;BME280;40174;52.364;6.452;2022-09-28T01:25:40;99256.84;;;8.23;100.00
54262;BME280;40174;52.364;6.452;2022-09-28T01:28:16;99256.03;;;8.22;100.00
54262;BME280;40174;52.364;6.452;2022-09-28T01:30:47;99261.28;;;8.22;100.00
54262;BME280;40174;52.364;6.452;2022-09-28T01:33:20;99261.59;;;8.19;100.00
54262;BME280;40174;52.364;6.452;2022-09-28T01:35:52;99253.81;;;8.18;100.00
54262;BME280;40174;52.364;6.452;2022-09-28T01:38:24;99258.41;;;8.16;100.00
54262;BME280;40174;52.364;6.452;2022-09-28T01:40:55;99260.22;;;8.15;100.00
54262;BME280;40174;52.364;6.452;2022-09-28T01:43:26;99262.03;;;8.15;100.00
54262;BME280;40174;52.364;6.452;2022-09-28T01:45:57;99256.06;;;8.12;100.00
54262;BME280;40174;52.364;6.452;2022-09-28T01:48:30;99251.13;;;8.09;100.00
54262;BME280;40174;52.364;6.452;2022-09-28T01:51:00;99253.06;;;8.07;100.00
54262;BME280;40174;52.364;6.452;2022-09-28T01:53:34;99251.38;;;8.06;100.00
54262;BME280;40174;52.364;6.452;2022-09-28T01:56:09;99251.69;;;8.03;100.00
54262;BME280;40174;52.364;6.452;2022-09-28T01:58:41;99250.00;;;8.02;100.00
54262;BME280;40174;52.364;6.452;2022-09-28T02:01:16;99256.13;;;8.03;100.00
54262;BME280;40174;52.364;6.452;2022-09-28T02:03:48;99250.31;;;7.99;100.00
54262;BME280;40174;52.364;6.452;2022-09-28T02:06:21;99249.50;;;7.99;100.00
54262;BME280;40174;52.364;6.452;2022-09-28T02:08:52;99245.06;;;7.99;100.00
54262;BME280;40174;52.364;6.452;2022-09-28T02:11:28;99241.44;;;8.00;100.00
54262;BME280;40174;52.364;6.452;2022-09-28T02:13:59;99245.88;;;8.00;100.00
54262;BME280;40174;52.364;6.452;2022-09-28T02:16:31;99246.69;;;8.00;100.00
54262;BME280;40174;52.364;6.452;2022-09-28T02:19:00;99244.06;;;8.00;100.00
54262;BME280;40174;52.364;6.452;2022-09-28T02:21:30;99249.50;;;7.99;100.00
54262;BME280;40174;52.364;6.452;2022-09-28T02:24:01;99245.06;;;7.99;100.00
54262;BME280;40174;52.364;6.452;2022-09-28T02:26:31;99243.09;;;8.01;100.00
54262;BME280;40174;52.364;6.452;2022-09-28T02:29:01;99249.19;;;8.02;100.00
54262;BME280;40174;52.364;6.452;2022-09-28T02:31:29;99251.13;;;8.00;100.00
54262;BME280;40174;52.364;6.452;2022-09-28T02:33:57;99249.50;;;7.99;100.00
54262;BME280;40174;52.364;6.452;2022-09-28T02:36:25;99249.19;;;8.02;100.00
54262;BME280;40174;52.364;6.452;2022-09-28T02:38:53;99249.50;;;7.99;100.00
54262;BME280;40174;52.364;6.452;2022-09-28T02:41:28;99251.31;;;7.98;100.00
54262;BME280;40174;52.364;6.452;2022-09-28T02:44:06;99246.19;;;7.97;100.00
54262;BME280;40174;52.364;6.452;2022-09-28T02:46:45;99255.03;;;7.96;100.00
54262;BME280;40174;52.364;6.452;2022-09-28T02:49:28;99258.50;;;7.96;100.00
54262;BME280;40174;52.364;6.452;2022-09-28T02:52:18;99256.69;;;7.97;100.00
54262;BME280;40174;52.364;6.452;2022-09-28T02:55:05;99261.16;;;7.96;100.00
54262;BME280;40174;52.364;6.452;2022-09-28T02:57:46;99260.16;;;7.97;100.00
54262;BME280;40174;52.364;6.452;2022-09-28T03:00:18;99266.66;;;7.93;100.00
54262;BME280;40174;52.364;6.452;2022-09-28T03:02:53;99274.56;;;7.93;100.00
54262;BME280;40174;52.364;6.452;2022-09-28T03:05:30;99262.53;;;7.90;100.00
54262;BME280;40174;52.364;6.452;2022-09-28T03:08:00;99273.19;;;7.89;100.00
54262;BME280;40174;52.364;6.452;2022-09-28T03:10:34;99273.06;;;7.90;100.00
54262;BME280;40174;52.364;6.452;2022-09-28T03:13:02;99279.13;;;7.91;100.00
54262;BME280;40174;52.364;6.452;2022-09-28T03:15:34;99275.56;;;7.92;100.00
54262;BME280;40174;52.364;6.452;2022-09-28T03:18:01;99274.03;;;7.89;100.00
54262;BME280;40174;52.364;6.452;2022-09-28T03:20:29;99274.03;;;7.89;100.00
54262;BME280;40174;52.364;6.452;2022-09-28T03:22:56;99280.25;;;7.88;100.00
54262;BME280;40174;52.364;6.452;2022-09-28T03:25:23;99276.25;;;7.84;100.00
54262;BME280;40174;52.364;6.452;2022-09-28T03:27:49;99275.44;;;7.84;100.00
54262;BME280;40174;52.364;6.452;2022-09-28T03:30:16;99279.88;;;7.83;100.00
54262;BME280;40174;52.364;6.452;2022-09-28T03:32:46;99284.00;;;7.86;100.00
54262;BME280;40174;52.364;6.452;2022-09-28T03:35:14;99277.38;;;7.82;100.00
54262;BME280;40174;52.364;6.452;2022-09-28T03:37:40;99283.44;;;7.82;100.00
54262;BME280;40174;52.364;6.452;2022-09-28T03:40:08;99277.53;;;7.80;100.00
54262;BME280;40174;52.364;6.452;2022-09-28T03:42:35;99279.31;;;7.80;100.00
54262;BME280;40174;52.364;6.452;2022-09-28T03:45:04;99276.69;;;7.80;100.00
54262;BME280;40174;52.364;6.452;2022-09-28T03:47:31;99278.53;;;7.69;100.00
54262;BME280;40174;52.364;6.452;2022-09-28T03:49:59;99277.72;;;7.69;100.00
54262;BME280;40174;52.364;6.452;2022-09-28T03:52:27;99280.16;;;7.70;100.00
54262;BME280;40174;52.364;6.452;2022-09-28T03:54:53;99282.66;;;7.72;100.00
54262;BME280;40174;52.364;6.452;2022-09-28T03:57:20;99276.41;;;7.73;100.00
54262;BME280;40174;52.364;6.452;2022-09-28T03:59:47;99273.78;;;7.73;100.00
54262;BME280;40174;52.364;6.452;2022-09-28T04:02:14;99278.22;;;7.73;100.00
54262;BME280;40174;52.364;6.452;2022-09-28T04:04:41;99277.13;;;7.75;100.00
54262;BME280;40174;52.364;6.452;2022-09-28T04:07:09;99285.16;;;7.74;100.00
54262;BME280;40174;52.364;6.452;2022-09-28T04:09:35;99284.34;;;7.63;100.00
54262;BME280;40174;52.364;6.452;2022-09-28T04:12:02;99280.34;;;7.59;100.00
54262;BME280;40174;52.364;6.452;2022-09-28T04:14:29;99282.28;;;7.57;100.00
54262;BME280;40174;52.364;6.452;2022-09-28T04:16:56;99281.59;;;7.55;100.00
54262;BME280;40174;52.364;6.452;2022-09-28T04:19:24;99271.22;;;7.54;100.00
54262;BME280;40174;52.364;6.452;2022-09-28T04:22:03;99282.69;;;7.53;100.00
54262;BME280;40174;52.364;6.452;2022-09-28T04:24:31;99283.69;;;7.52;100.00
54262;BME280;40174;52.364;6.452;2022-09-28T04:26:58;99277.88;;;7.48;100.00
54262;BME280;40174;52.364;6.452;2022-09-28T04:29:38;99281.47;;;7.47;100.00
54262;BME280;40174;52.364;6.452;2022-09-28T04:32:08;99274.16;;;7.41;100.00
54262;BME280;40174;52.364;6.452;2022-09-28T04:34:37;99275.97;;;7.40;100.00
54262;BME280;40174;52.364;6.452;2022-09-28T04:37:03;99279.41;;;7.41;100.00
54262;BME280;40174;52.364;6.452;2022-09-28T04:39:31;99286.72;;;7.37;100.00
54262;BME280;40174;52.364;6.452;2022-09-28T04:41:58;99273.47;;;7.39;100.00
54262;BME280;40174;52.364;6.452;2022-09-28T04:44:26;99277.19;;;7.36;100.00
54262;BME280;40174;52.364;6.452;2022-09-28T04:47:00;99277.72;;;7.40;100.00
54262;BME280;40174;52.364;6.452;2022-09-28T04:49:27;99269.84;;;7.40;100.00
54262;BME280;40174;52.364;6.452;2022-09-28T04:52:01;99272.63;;;7.38;100.00
54262;BME280;40174;52.364;6.452;2022-09-28T04:54:29;99279.00;;;7.36;100.00
54262;BME280;40174;52.364;6.452;2022-09-28T04:56:56;99282.47;;;7.36;100.00
54262;BME280;40174;52.364;6.452;2022-09-28T04:59:24;99279.00;;;7.36;100.00
54262;BME280;40174;52.364;6.452;2022-09-28T05:01:51;99282.59;;;7.35;100.00
54262;BME280;40174;52.364;6.452;2022-09-28T05:04:21;99289.66;;;7.34;100.00
54262;BME280;40174;52.364;6.452;2022-09-28T05:07:10;99292.41;;;7.33;100.00
54262;BME280;40174;52.364;6.452;2022-09-28T05:09:37;99290.34;;;7.36;100.00
54262;BME280;40174;52.364;6.452;2022-09-28T05:12:05;99290.47;;;7.35;100.00
54262;BME280;40174;52.364;6.452;2022-09-28T05:14:31;99284.41;;;7.34;100.00
54262;BME280;40174;52.364;6.452;2022-09-28T05:16:58;99281.06;;;7.32;100.00
54262;BME280;40174;52.364;6.452;2022-09-28T05:19:25;99279.28;;;7.33;100.00
54262;BME280;40174;52.364;6.452;2022-09-28T05:21:56;99281.06;;;7.32;100.00
54262;BME280;40174;52.364;6.452;2022-09-28T05:24:24;99276.09;;;7.29;100.00
54262;BME280;40174;52.364;6.452;2022-09-28T05:26:52;99291.03;;;7.28;100.00
54262;BME280;40174;52.364;6.452;2022-09-28T05:29:20;99276.09;;;7.29;100.00
54262;BME280;40174;52.364;6.452;2022-09-28T05:32:10;99283.13;;;7.28;100.00
54262;BME280;40174;52.364;6.452;2022-09-28T05:34:55;99284.41;;;7.24;100.00
54262;BME280;40174;52.364;6.452;2022-09-28T05:37:28;99274.03;;;7.23;100.00
54262;BME280;40174;52.364;6.452;2022-09-28T05:39:56;99273.22;;;7.22;100.00
54262;BME280;40174;52.364;6.452;2022-09-28T05:42:24;99279.00;;;7.26;100.00
54262;BME280;40174;52.364;6.452;2022-09-28T05:44:52;99276.38;;;7.26;100.00
54262;BME280;40174;52.364;6.452;2022-09-28T05:47:19;99281.50;;;7.27;100.00
54262;BME280;40174;52.364;6.452;2022-09-28T05:49:45;99283.84;;;7.31;100.00
54262;BME280;40174;52.364;6.452;2022-09-28T05:52:12;99282.06;;;7.31;100.00
54262;BME280;40174;52.364;6.452;2022-09-28T05:54:39;99283.69;;;7.32;100.00
54262;BME280;40174;52.364;6.452;2022-09-28T05:57:06;99284.53;;;7.33;100.00
54262;BME280;40174;52.364;6.452;2022-09-28T05:59:32;99284.81;;;7.29;100.00
54262;BME280;40174;52.364;6.452;2022-09-28T06:02:03;99280.13;;;7.33;100.00
54262;BME280;40174;52.364;6.452;2022-09-28T06:04:30;99288.13;;;7.32;100.00
54262;BME280;40174;52.364;6.452;2022-09-28T06:06:57;99285.22;;;7.35;100.00
54262;BME280;40174;52.364;6.452;2022-09-28T06:09:24;99288.41;;;7.38;100.00
54262;BME280;40174;52.364;6.452;2022-09-28T06:12:00;99280.22;;;7.41;100.00
54262;BME280;40174;52.364;6.452;2022-09-28T06:14:43;99284.94;;;7.47;100.00
54262;BME280;40174;52.364;6.452;2022-09-28T06:17:11;99286.44;;;7.50;100.00
54262;BME280;40174;52.364;6.452;2022-09-28T06:19:38;99290.31;;;7.56;100.00
54262;BME280;40174;52.364;6.452;2022-09-28T06:22:44;99292.53;;;7.60;100.00
54262;BME280;40174;52.364;6.452;2022-09-28T06:25:11;99296.50;;;7.64;100.00
54262;BME280;40174;52.364;6.452;2022-09-28T06:27:38;99304.13;;;7.67;100.00
54262;BME280;40174;52.364;6.452;2022-09-28T06:30:07;99302.59;;;7.75;100.00
54262;BME280;40174;52.364;6.452;2022-09-28T06:32:35;99299.81;;;7.76;100.00
54262;BME280;40174;52.364;6.452;2022-09-28T06:35:02;99307.72;;;7.76;100.00
54262;BME280;40174;52.364;6.452;2022-09-28T06:37:29;99305.47;;;7.81;100.00
54262;BME280;40174;52.364;6.452;2022-09-28T06:39:58;99314.63;;;7.87;100.00
54262;BME280;40174;52.364;6.452;2022-09-28T06:42:25;99312.13;;;7.85;100.00
54262;BME280;40174;52.364;6.452;2022-09-28T06:45:15;99312.66;;;7.89;100.00
54262;BME280;40174;52.364;6.452;2022-09-28T06:48:06;99322.47;;;7.97;100.00
54262;BME280;40174;52.364;6.452;2022-09-28T06:50:39;99322.88;;;8.02;100.00
54262;BME280;40174;52.364;6.452;2022-09-28T06:53:24;99325.63;;;8.10;100.00
54262;BME280;40174;52.364;6.452;2022-09-28T06:56:08;99324.50;;;8.12;100.00
54262;BME280;40174;52.364;6.452;2022-09-28T06:58:35;99328.50;;;8.17;100.00
54262;BME280;40174;52.364;6.452;2022-09-28T07:01:02;99332.78;;;8.18;100.00
54262;BME280;40174;52.364;6.452;2022-09-28T07:03:41;99335.97;;;8.21;100.00
54262;BME280;40174;52.364;6.452;2022-09-28T07:06:45;99341.75;;;8.25;100.00
54262;BME280;40174;52.364;6.452;2022-09-28T07:09:52;99345.38;;;8.24;100.00
54262;BME280;40174;52.364;6.452;2022-09-28T07:12:27;99344.56;;;8.23;100.00
54262;BME280;40174;52.364;6.452;2022-09-28T07:15:00;99340.66;;;8.27;100.00
54262;BME280;40174;52.364;6.452;2022-09-28T07:17:27;99355.03;;;8.33;100.00
54262;BME280;40174;52.364;6.452;2022-09-28T07:19:58;99352.09;;;8.36;100.00
54262;BME280;40174;52.364;6.452;2022-09-28T07:22:25;99352.56;;;8.41;100.00
54262;BME280;40174;52.364;6.452;2022-09-28T07:24:52;99356.56;;;8.45;100.00
54262;BME280;40174;52.364;6.452;2022-09-28T07:27:37;99351.44;;;8.44;100.00
54262;BME280;40174;52.364;6.452;2022-09-28T07:30:23;99357.38;;;8.46;100.00
54262;BME280;40174;52.364;6.452;2022-09-28T07:33:02;99361.91;;;8.53;100.00
54262;BME280;40174;52.364;6.452;2022-09-28T07:35:51;99357.03;;;8.59;100.00
54262;BME280;40174;52.364;6.452;2022-09-28T07:38:19;99363.38;;;8.66;100.00
54262;BME280;40174;52.364;6.452;2022-09-28T07:40:45;99366.41;;;8.71;100.00
54262;BME280;40174;52.364;6.452;2022-09-28T07:43:30;99377.19;;;8.78;100.00
54262;BME280;40174;52.364;6.452;2022-09-28T07:45:57;99370.78;;;8.80;100.00
54262;BME280;40174;52.364;6.452;2022-09-28T07:48:24;99378.31;;;8.75;100.00
54262;BME280;40174;52.364;6.452;2022-09-28T07:50:55;99376.63;;;8.74;100.00
54262;BME280;40174;52.364;6.452;2022-09-28T07:53:32;99382.75;;;8.74;100.00
54262;BME280;40174;52.364;6.452;2022-09-28T07:56:25;99379.13;;;8.76;100.00
54262;BME280;40174;52.364;6.452;2022-09-28T07:59:14;99377.19;;;8.78;100.00
54262;BME280;40174;52.364;6.452;2022-09-28T08:02:01;99386.47;;;8.82;100.00
54262;BME280;40174;52.364;6.452;2022-09-28T08:04:29;99392.41;;;8.84;100.00
54262;BME280;40174;52.364;6.452;2022-09-28T08:06:57;99391.28;;;8.86;100.00
54262;BME280;40174;52.364;6.452;2022-09-28T08:09:24;99387.66;;;8.87;100.00
54262;BME280;40174;52.364;6.452;2022-09-28T08:12:10;99401.06;;;8.94;100.00
54262;BME280;40174;52.364;6.452;2022-09-28T08:14:44;99399.34;;;9.03;100.00
54262;BME280;40174;52.364;6.452;2022-09-28T08:17:33;99399.72;;;9.08;100.00
54262;BME280;40174;52.364;6.452;2022-09-28T08:20:05;99396.66;;;9.12;100.00
54262;BME280;40174;52.364;6.452;2022-09-28T08:23:06;99411.19;;;9.16;100.00
54262;BME280;40174;52.364;6.452;2022-09-28T08:25:34;99406.78;;;9.17;100.00
54262;BME280;40174;52.364;6.452;2022-09-28T08:28:03;99409.66;;;9.24;100.00
54262;BME280;40174;52.364;6.452;2022-09-28T08:30:34;99408.06;;;9.31;100.00
54262;BME280;40174;52.364;6.452;2022-09-28T08:33:19;99410.94;;;9.38;100.00
54262;BME280;40174;52.364;6.452;2022-09-28T08:36:05;99417.56;;;9.42;100.00
54262;BME280;40174;52.364;6.452;2022-09-28T08:39:03;99418.09;;;9.45;100.00
54262;BME280;40174;52.364;6.452;2022-09-28T08:41:52;99425.69;;;9.48;100.00
54262;BME280;40174;52.364;6.452;2022-09-28T08:44:40;99421.63;;;9.54;100.00
54262;BME280;40174;52.364;6.452;2022-09-28T08:47:21;99425.69;;;9.66;100.00
54262;BME280;40174;52.364;6.452;2022-09-28T08:50:32;99432.41;;;9.78;100.00
54262;BME280;40174;52.364;6.452;2022-09-28T08:53:33;99431.50;;;9.88;100.00
54262;BME280;40174;52.364;6.452;2022-09-28T08:56:25;99430.53;;;9.89;100.00
54262;BME280;40174;52.364;6.452;2022-09-28T08:58:55;99428.94;;;9.96;100.00
54262;BME280;40174;52.364;6.452;2022-09-28T09:01:25;99437.06;;;10.03;100.00
54262;BME280;40174;52.364;6.452;2022-09-28T09:03:54;99436.63;;;10.15;100.00
54262;BME280;40174;52.364;6.452;2022-09-28T09:06:41;99440.84;;;10.26;100.00
54262;BME280;40174;52.364;6.452;2022-09-28T09:09:42;99439.19;;;10.25;100.00
54262;BME280;40174;52.364;6.452;2022-09-28T09:12:19;99448.88;;;10.34;100.00
54262;BME280;40174;52.364;6.452;2022-09-28T09:15:12;99458.81;;;10.40;100.00
54262;BME280;40174;52.364;6.452;2022-09-28T09:17:50;99459.78;;;10.39;100.00
54262;BME280;40174;52.364;6.452;2022-09-28T09:20:46;99458.03;;;10.48;100.00
54262;BME280;40174;52.364;6.452;2022-09-28T09:23:32;99451.38;;;10.70;100.00
54262;BME280;40174;52.364;6.452;2022-09-28T09:26:04;99462.69;;;10.89;100.00
54262;BME280;40174;52.364;6.452;2022-09-28T09:28:49;99458.41;;;10.88;100.00
54262;BME280;40174;52.364;6.452;2022-09-28T09:31:41;99455.91;;;10.86;100.00
54262;BME280;40174;52.364;6.452;2022-09-28T09:34:36;99460.09;;;11.05;100.00
54262;BME280;40174;52.364;6.452;2022-09-28T09:37:32;99462.94;;;11.12;100.00
54262;BME280;40174;52.364;6.452;2022-09-28T09:40:42;99472.69;;;11.11;100.00
54262;BME280;40174;52.364;6.452;2022-09-28T09:44:03;99463.63;;;11.14;100.00
54262;BME280;40174;52.364;6.452;2022-09-28T09:47:00;99469.97;;;11.37;100.00
54262;BME280;40174;52.364;6.452;2022-09-28T09:49:54;99474.81;;;11.58;100.00
54262;BME280;40174;52.364;6.452;2022-09-28T09:52:28;99476.34;;;11.69;100.00
54262;BME280;40174;52.364;6.452;2022-09-28T09:55:00;99474.31;;;11.63;100.00
54262;BME280;40174;52.364;6.452;2022-09-28T09:57:41;99471.72;;;11.71;100.00
54262;BME280;40174;52.364;6.452;2022-09-28T10:00:44;99471.59;;;11.89;100.00
54262;BME280;40174;52.364;6.452;2022-09-28T10:03:24;99475.75;;;12.00;100.00
54262;BME280;40174;52.364;6.452;2022-09-28T10:05:58;99476.72;;;11.91;100.00
54262;BME280;40174;52.364;6.452;2022-09-28T10:08:26;99479.19;;;11.84;100.00
54262;BME280;40174;52.364;6.452;2022-09-28T10:11:03;99481.47;;;11.79;100.00
54262;BME280;40174;52.364;6.452;2022-09-28T10:13:34;99488.06;;;11.75;100.00
54262;BME280;40174;52.364;6.452;2022-09-28T10:16:10;99474.84;;;11.67;100.00
54262;BME280;40174;52.364;6.452;2022-09-28T10:18:45;99476.47;;;11.68;100.00
54262;BME280;40174;52.364;6.452;2022-09-28T10:21:52;99477.19;;;11.78;100.00
54262;BME280;40174;52.364;6.452;2022-09-28T10:24:28;99474.22;;;11.89;100.00
54262;BME280;40174;52.364;6.452;2022-09-28T10:26:59;99481.69;;;11.94;100.00
54262;BME280;40174;52.364;6.452;2022-09-28T10:29:38;99478.22;;;12.10;100.00
54262;BME280;40174;52.364;6.452;2022-09-28T10:32:18;99478.88;;;12.20;100.00
54262;BME280;40174;52.364;6.452;2022-09-28T10:34:45;99479.19;;;12.50;100.00
54262;BME280;40174;52.364;6.452;2022-09-28T10:37:15;99472.84;;;12.67;100.00
54262;BME280;40174;52.364;6.452;2022-09-28T10:39:57;99474.72;;;12.98;100.00
54262;BME280;40174;52.364;6.452;2022-09-28T10:42:31;99479.97;;;13.14;99.42
54262;BME280;40174;52.364;6.452;2022-09-28T10:45:03;99481.81;;;13.45;100.00
54262;BME280;40174;52.364;6.452;2022-09-28T10:47:43;99486.28;;;13.76;100.00
54262;BME280;40174;52.364;6.452;2022-09-28T10:50:19;99482.53;;;13.70;97.50
54262;BME280;40174;52.364;6.452;2022-09-28T10:52:47;99474.50;;;13.78;97.16
54262;BME280;40174;52.364;6.452;2022-09-28T10:55:33;99477.81;;;13.80;97.17
54262;BME280;40174;52.364;6.452;2022-09-28T10:58:21;99474.28;;;13.88;92.35
54262;BME280;40174;52.364;6.452;2022-09-28T11:00:49;99472.41;;;14.11;93.70
54262;BME280;40174;52.364;6.452;2022-09-28T11:03:23;99473.97;;;14.06;93.34
54262;BME280;40174;52.364;6.452;2022-09-28T11:05:55;99481.03;;;14.13;92.68
54262;BME280;40174;52.364;6.452;2022-09-28T11:08:27;99479.09;;;14.07;91.24
54262;BME280;40174;52.364;6.452;2022-09-28T11:11:07;99481.47;;;14.02;92.73
54262;BME280;40174;52.364;6.452;2022-09-28T11:13:42;99481.50;;;13.94;92.56
54262;BME280;40174;52.364;6.452;2022-09-28T11:16:23;99472.66;;;13.79;90.98
54262;BME280;40174;52.364;6.452;2022-09-28T11:18:51;99485.53;;;13.67;91.56
54262;BME280;40174;52.364;6.452;2022-09-28T11:21:21;99477.97;;;13.56;92.85
54262;BME280;40174;52.364;6.452;2022-09-28T11:23:58;99483.63;;;13.52;92.69
54262;BME280;40174;52.364;6.452;2022-09-28T11:26:33;99485.63;;;13.50;93.11
54262;BME280;40174;52.364;6.452;2022-09-28T11:29:01;99491.75;;;13.51;94.29
54262;BME280;40174;52.364;6.452;2022-09-28T11:31:39;99483.88;;;13.66;94.37
54262;BME280;40174;52.364;6.452;2022-09-28T11:34:20;99483.16;;;13.72;92.15
54262;BME280;40174;52.364;6.452;2022-09-28T11:37:26;99471.38;;;13.75;89.03
54262;BME280;40174;52.364;6.452;2022-09-28T11:40:05;99476.31;;;13.78;90.41
54262;BME280;40174;52.364;6.452;2022-09-28T11:42:42;99467.00;;;14.05;88.40
54262;BME280;40174;52.364;6.452;2022-09-28T11:45:28;99469.31;;;14.23;88.48
54262;BME280;40174;52.364;6.452;2022-09-28T11:47:59;99468.41;;;14.16;88.53
54262;BME280;40174;52.364;6.452;2022-09-28T11:50:39;99463.22;;;13.99;87.49
54262;BME280;40174;52.364;6.452;2022-09-28T11:53:15;99477.88;;;13.95;87.25
54262;BME280;40174;52.364;6.452;2022-09-28T11:55:50;99479.03;;;14.16;88.41
54262;BME280;40174;52.364;6.452;2022-09-28T11:58:24;99477.22;;;14.31;90.79
54262;BME280;40174;52.364;6.452;2022-09-28T12:00:56;99470.78;;;14.25;88.76
54262;BME280;40174;52.364;6.452;2022-09-28T12:03:39;99470.63;;;14.27;92.56
54262;BME280;40174;52.364;6.452;2022-09-28T12:06:13;99475.00;;;14.20;87.92
54262;BME280;40174;52.364;6.452;2022-09-28T12:08:45;99475.28;;;14.25;89.07
54262;BME280;40174;52.364;6.452;2022-09-28T12:11:44;99480.66;;;14.17;87.14
54262;BME280;40174;52.364;6.452;2022-09-28T12:14:25;99479.84;;;14.16;87.03
54262;BME280;40174;52.364;6.452;2022-09-28T12:16:56;99480.22;;;14.13;86.76
54262;BME280;40174;52.364;6.452;2022-09-28T12:19:29;99486.06;;;14.08;88.80
54262;BME280;40174;52.364;6.452;2022-09-28T12:22:02;99480.22;;;13.90;87.80
54262;BME280;40174;52.364;6.452;2022-09-28T12:24:33;99488.28;;;13.73;91.37
54262;BME280;40174;52.364;6.452;2022-09-28T12:27:05;99491.06;;;13.57;95.61
54262;BME280;40174;52.364;6.452;2022-09-28T12:29:37;99496.13;;;13.44;99.49
54262;BME280;40174;52.364;6.452;2022-09-28T12:32:11;99495.84;;;13.30;100.00
54262;BME280;40174;52.364;6.452;2022-09-28T12:34:40;99494.88;;;13.15;100.00
54262;BME280;40174;52.364;6.452;2022-09-28T12:37:23;99490.63;;;13.06;100.00
54262;BME280;40174;52.364;6.452;2022-09-28T12:40:18;99491.66;;;12.97;100.00
54262;BME280;40174;52.364;6.452;2022-09-28T12:43:01;99488.03;;;12.89;100.00
54262;BME280;40174;52.364;6.452;2022-09-28T12:45:39;99494.31;;;12.88;100.00
54262;BME280;40174;52.364;6.452;2022-09-28T12:48:32;99486.53;;;12.87;100.00
54262;BME280;40174;52.364;6.452;2022-09-28T12:51:10;99484.19;;;12.92;100.00
54262;BME280;40174;52.364;6.452;2022-09-28T12:54:05;99494.50;;;13.26;100.00
54262;BME280;40174;52.364;6.452;2022-09-28T12:56:40;99499.75;;;13.74;100.00
54262;BME280;40174;52.364;6.452;2022-09-28T12:59:15;99493.03;;;13.86;96.40
54262;BME280;40174;52.364;6.452;2022-09-28T13:02:00;99500.06;;;13.79;96.61
54262;BME280;40174;52.364;6.452;2022-09-28T13:04:56;99490.50;;;13.70;97.01
54262;BME280;40174;52.364;6.452;2022-09-28T13:07:31;99493.88;;;13.56;98.74
54262;BME280;40174;52.364;6.452;2022-09-28T13:10:13;99486.44;;;13.51;100.00
54262;BME280;40174;52.364;6.452;2022-09-28T13:12:51;99490.16;;;13.42;100.00
54262;BME280;40174;52.364;6.452;2022-09-28T13:15:36;99494.28;;;13.44;100.00
54262;BME280;40174;52.364;6.452;2022-09-28T13:18:10;99485.13;;;13.47;100.00
54262;BME280;40174;52.364;6.452;2022-09-28T13:20:54;99489.66;;;13.69;100.00
54262;BME280;40174;52.364;6.452;2022-09-28T13:23:26;99486.16;;;13.92;100.00
54262;BME280;40174;52.364;6.452;2022-09-28T13:26:01;99479.63;;;14.03;100.00
54262;BME280;40174;52.364;6.452;2022-09-28T13:28:35;99477.63;;;14.05;100.00
54262;BME280;40174;52.364;6.452;2022-09-28T13:31:03;99478.84;;;14.17;100.00
54262;BME280;40174;52.364;6.452;2022-09-28T13:33:33;99470.00;;;14.40;100.00
54262;BME280;40174;52.364;6.452;2022-09-28T13:36:01;99482.34;;;14.55;100.00
54262;BME280;40174;52.364;6.452;2022-09-28T13:38:42;99478.31;;;14.60;100.00
54262;BME280;40174;52.364;6.452;2022-09-28T13:41:18;99478.50;;;14.58;100.00
54262;BME280;40174;52.364;6.452;2022-09-28T13:44:10;99475.66;;;14.74;100.00